createdAt,value
2019-02-16T00:00:49.328Z,2.00
2019-02-16T00:03:12.425Z,2.00
2019-02-16T00:05:33.816Z,2.10
2019-02-16T00:07:55.117Z,2.10
2019-02-16T00:10:18.334Z,2.20
2019-02-16T00:12:39.524Z,2.20
2019-02-16T00:15:00.706Z,2.20
2019-02-16T00:17:21.910Z,2.20
2019-02-16T00:19:43.102Z,2.10
2019-02-16T00:22:04.301Z,2.20
2019-02-16T00:24:25.490Z,2.20
2019-02-16T00:26:46.681Z,2.10
2019-02-16T00:29:07.965Z,2.00
2019-02-16T00:31:29.140Z,2.10
2019-02-16T00:33:50.619Z,2.00
2019-02-16T00:36:11.905Z,2.00
2019-02-16T00:38:33.148Z,1.90
2019-02-16T00:40:54.409Z,1.90
2019-02-16T00:43:15.620Z,1.90
2019-02-16T00:45:36.802Z,1.80
2019-02-16T00:47:58.014Z,1.80
2019-02-16T00:50:19.187Z,1.70
2019-02-16T00:52:40.397Z,1.70
2019-02-16T00:55:01.586Z,1.70
2019-02-16T00:57:23.898Z,1.60
2019-02-16T00:59:45.080Z,1.60
2019-02-16T01:02:06.275Z,1.50
2019-02-16T01:04:27.472Z,1.50
2019-02-16T01:06:48.683Z,1.60
2019-02-16T01:09:09.879Z,1.60
2019-02-16T01:11:31.061Z,1.50
2019-02-16T01:13:52.361Z,1.50
2019-02-16T01:16:13.538Z,1.50
2019-02-16T01:18:34.751Z,1.40
2019-02-16T01:20:55.938Z,1.40
2019-02-16T01:23:17.159Z,1.40
2019-02-16T01:25:38.344Z,1.40
2019-02-16T01:27:59.568Z,1.40
2019-02-16T01:30:20.763Z,1.40
2019-02-16T01:32:41.955Z,1.40
2019-02-16T01:35:05.358Z,1.30
2019-02-16T01:37:26.538Z,1.30
2019-02-16T01:39:47.735Z,1.30
2019-02-16T01:42:09.331Z,1.30
2019-02-16T01:44:30.537Z,1.20
2019-02-16T01:46:51.725Z,1.20
2019-02-16T01:49:12.936Z,1.20
2019-02-16T01:51:34.111Z,1.20
2019-02-16T01:53:55.320Z,1.10
2019-02-16T01:56:16.519Z,1.10
2019-02-16T01:58:37.723Z,1.10
2019-02-16T02:00:58.918Z,1.10
2019-02-16T02:03:20.122Z,0.90
2019-02-16T02:05:41.305Z,0.90
2019-02-16T02:08:02.517Z,0.80
2019-02-16T02:10:24.897Z,0.80
2019-02-16T02:12:46.100Z,0.90
2019-02-16T02:15:08.571Z,0.80
2019-02-16T02:17:29.786Z,0.80
2019-02-16T02:19:50.971Z,0.70
2019-02-16T02:22:12.162Z,0.80
2019-02-16T02:24:33.383Z,0.70
2019-02-16T02:26:54.560Z,0.70
2019-02-16T02:29:15.775Z,0.70
2019-02-16T02:31:37.547Z,0.70
2019-02-16T02:33:59.179Z,0.70
2019-02-16T02:36:20.358Z,0.70
2019-02-16T02:38:41.561Z,0.70
2019-02-16T02:41:02.746Z,0.70
2019-02-16T02:43:23.933Z,0.70
2019-02-16T02:45:45.117Z,0.80
2019-02-16T02:48:06.330Z,0.70
2019-02-16T02:50:27.545Z,0.70
2019-02-16T02:52:48.746Z,0.80
2019-02-16T02:55:09.946Z,0.80
2019-02-16T02:57:31.149Z,0.80
2019-02-16T02:59:52.456Z,0.80
2019-02-16T03:02:13.633Z,0.80
2019-02-16T03:04:34.829Z,0.80
2019-02-16T03:06:56.041Z,0.90
2019-02-16T03:09:17.241Z,0.90
2019-02-16T03:11:38.442Z,1.00
2019-02-16T03:13:59.633Z,0.90
2019-02-16T03:16:20.813Z,0.80
2019-02-16T03:18:42.005Z,0.70
2019-02-16T03:21:03.198Z,0.80
2019-02-16T03:23:24.484Z,0.80
2019-02-16T03:25:55.197Z,0.90
2019-02-16T03:28:34.221Z,0.80
2019-02-16T03:31:13.685Z,0.80
2019-02-16T03:33:44.767Z,0.80
2019-02-16T03:36:12.638Z,0.80
2019-02-16T03:38:43.916Z,0.80
2019-02-16T03:41:05.205Z,0.70
2019-02-16T03:43:26.408Z,0.60
2019-02-16T03:45:48.362Z,0.60
2019-02-16T03:48:09.920Z,0.60
2019-02-16T03:50:31.465Z,0.60
2019-02-16T03:52:52.745Z,0.70
2019-02-16T03:55:13.940Z,0.70
2019-02-16T03:57:35.128Z,0.60
2019-02-16T03:59:56.337Z,0.50
2019-02-16T04:02:17.532Z,0.50
2019-02-16T04:04:38.728Z,0.50
2019-02-16T04:06:59.937Z,0.60
2019-02-16T04:09:21.147Z,0.40
2019-02-16T04:11:42.336Z,0.40
2019-02-16T04:14:03.538Z,0.30
2019-02-16T04:16:24.732Z,0.30
2019-02-16T04:18:46.014Z,0.30
2019-02-16T04:21:07.213Z,0.30
2019-02-16T04:23:28.436Z,0.30
2019-02-16T04:25:49.625Z,0.30
2019-02-16T04:28:11.143Z,0.30
2019-02-16T04:30:32.342Z,0.40
2019-02-16T04:32:53.534Z,0.30
2019-02-16T04:35:14.733Z,0.30
2019-02-16T04:37:35.922Z,0.20
2019-02-16T04:39:57.120Z,0.20
2019-02-16T04:42:18.307Z,0.20
2019-02-16T04:44:40.319Z,0.20
2019-02-16T04:47:01.506Z,0.20
2019-02-16T04:49:22.704Z,0.20
2019-02-16T04:51:43.902Z,0.10
2019-02-16T04:54:05.107Z,0.10
2019-02-16T04:56:26.326Z,0.00
2019-02-16T04:58:47.505Z,0.00
2019-02-16T05:01:08.713Z,0.10
2019-02-16T05:03:29.904Z,0.10
2019-02-16T05:05:51.099Z,0.10
2019-02-16T05:08:12.355Z,0.10
2019-02-16T05:10:34.720Z,0.10
2019-02-16T05:12:55.917Z,0.10
2019-02-16T05:15:17.123Z,0.10
2019-02-16T05:17:38.610Z,0.10
2019-02-16T05:19:59.809Z,0.20
2019-02-16T05:22:20.988Z,0.20
2019-02-16T05:24:42.199Z,0.20
2019-02-16T05:27:03.399Z,0.20
2019-02-16T05:29:24.581Z,0.20
2019-02-16T05:31:45.773Z,0.10
2019-02-16T05:34:26.838Z,0.00
2019-02-16T05:36:48.145Z,0.00
2019-02-16T05:39:09.436Z,0.00
2019-02-16T05:41:30.628Z,0.10
2019-02-16T05:43:51.814Z,0.10
2019-02-16T05:46:13.017Z,0.00
2019-02-16T05:48:34.209Z,0.00
2019-02-16T05:50:55.402Z,-0.10
2019-02-16T05:53:16.587Z,-0.10
2019-02-16T05:55:37.801Z,-0.10
2019-02-16T05:57:58.965Z,0.00
2019-02-16T06:00:22.077Z,-0.10
2019-02-16T06:02:43.324Z,-0.10
2019-02-16T06:05:05.253Z,-0.10
2019-02-16T06:07:26.577Z,-0.10
2019-02-16T06:09:47.776Z,-0.10
2019-02-16T06:12:08.990Z,0.00
2019-02-16T06:14:30.175Z,-0.10
2019-02-16T06:16:51.374Z,-0.20
2019-02-16T06:19:12.590Z,-0.20
2019-02-16T06:21:33.882Z,-0.10
2019-02-16T06:23:55.078Z,-0.20
2019-02-16T06:26:17.400Z,-0.30
2019-02-16T06:28:38.606Z,-0.20
2019-02-16T06:30:59.809Z,-0.30
2019-02-16T06:33:20.995Z,-0.30
2019-02-16T06:35:44.106Z,-0.30
2019-02-16T06:38:05.339Z,-0.20
2019-02-16T06:40:26.536Z,-0.10
2019-02-16T06:42:47.732Z,-0.10
2019-02-16T06:45:08.944Z,-0.20
2019-02-16T06:47:30.158Z,-0.10
2019-02-16T06:49:51.350Z,0.00
2019-02-16T06:52:12.571Z,0.00
2019-02-16T06:54:33.860Z,0.00
2019-02-16T06:57:02.731Z,0.10
2019-02-16T06:59:23.918Z,-0.10
2019-02-16T07:01:45.153Z,0.00
2019-02-16T07:04:06.422Z,0.00
2019-02-16T07:06:28.951Z,0.00
2019-02-16T07:08:50.138Z,0.10
2019-02-16T07:11:11.361Z,0.10
2019-02-16T07:13:32.544Z,0.10
2019-02-16T07:16:11.982Z,0.10
2019-02-16T07:18:35.071Z,0.30
2019-02-16T07:20:56.276Z,0.40
2019-02-16T07:23:22.521Z,0.30
2019-02-16T07:25:42.554Z,0.30
2019-02-16T07:28:03.763Z,0.30
2019-02-16T07:30:24.954Z,0.30
2019-02-16T07:32:46.137Z,0.40
2019-02-16T07:35:08.025Z,0.40
2019-02-16T07:37:29.205Z,0.40
2019-02-16T07:39:50.406Z,0.40
2019-02-16T07:42:11.597Z,0.50
2019-02-16T07:44:43.720Z,0.60
2019-02-16T07:47:23.497Z,0.70
2019-02-16T07:49:49.366Z,0.80
2019-02-16T07:52:12.465Z,0.80
2019-02-16T07:54:35.557Z,0.90
2019-02-16T07:57:01.419Z,1.00
2019-02-16T07:59:27.342Z,1.10
2019-02-16T08:01:53.230Z,1.20
2019-02-16T08:04:32.916Z,1.30
2019-02-16T08:07:01.918Z,1.30
2019-02-16T08:09:25.041Z,1.40
2019-02-16T08:11:51.013Z,1.50
2019-02-16T08:14:23.363Z,1.60
2019-02-16T08:16:51.991Z,1.70
2019-02-16T08:19:27.059Z,1.70
2019-02-16T08:22:02.089Z,1.90
2019-02-16T08:24:42.188Z,2.00
2019-02-16T08:27:05.275Z,2.10
2019-02-16T08:29:34.161Z,2.20
2019-02-16T08:32:12.304Z,2.20
2019-02-16T08:34:47.462Z,2.30
2019-02-16T08:37:10.536Z,2.40
2019-02-16T08:39:33.623Z,2.50
2019-02-16T08:42:07.400Z,2.60
2019-02-16T08:44:39.547Z,2.70
2019-02-16T08:47:05.169Z,2.80
2019-02-16T08:49:34.485Z,2.80
2019-02-16T08:51:57.583Z,3.00
2019-02-16T08:54:20.681Z,3.10
2019-02-16T08:57:00.253Z,3.10
2019-02-16T08:59:23.357Z,3.20
2019-02-16T09:01:52.255Z,3.30
2019-02-16T09:04:17.993Z,3.40
2019-02-16T09:06:49.938Z,3.40
2019-02-16T09:09:29.445Z,3.40
2019-02-16T09:11:52.525Z,3.60
2019-02-16T09:14:32.175Z,3.70
2019-02-16T09:17:05.308Z,3.90
2019-02-16T09:19:28.395Z,4.00
2019-02-16T09:21:51.558Z,4.10
2019-02-16T09:24:17.437Z,4.20
2019-02-16T09:26:43.490Z,4.30
2019-02-16T09:29:23.121Z,4.30
2019-02-16T09:31:46.201Z,4.40
2019-02-16T09:34:09.302Z,4.60
2019-02-16T09:36:50.697Z,4.60
2019-02-16T09:39:19.572Z,4.70
2019-02-16T09:41:48.595Z,4.90
2019-02-16T09:44:11.705Z,4.90
2019-02-16T09:46:40.868Z,5.00
2019-02-16T09:49:03.995Z,5.30
2019-02-16T09:51:35.679Z,5.30
2019-02-16T09:54:10.922Z,5.40
2019-02-16T09:56:34.010Z,5.60
2019-02-16T09:59:12.160Z,5.70
2019-02-16T10:01:35.261Z,5.80
2019-02-16T10:03:58.332Z,6.00
2019-02-16T10:06:36.730Z,6.10
2019-02-16T10:08:59.835Z,6.10
2019-02-16T10:11:22.926Z,6.20
2019-02-16T10:13:48.756Z,6.30
2019-02-16T10:16:11.888Z,6.50
2019-02-16T10:18:46.775Z,6.50
2019-02-16T10:21:15.744Z,6.60
2019-02-16T10:23:38.813Z,6.70
2019-02-16T10:26:04.570Z,6.90
2019-02-16T10:28:27.744Z,7.00
2019-02-16T10:31:02.783Z,7.30
2019-02-16T10:33:25.865Z,7.30
2019-02-16T10:35:49.015Z,7.40
2019-02-16T10:38:12.185Z,7.60
2019-02-16T10:40:35.373Z,7.50
2019-02-16T10:46:06.924Z,7.80
2019-02-16T10:48:46.366Z,7.80
2019-02-16T10:51:12.250Z,7.80
2019-02-16T10:53:37.852Z,8.00
2019-02-16T10:56:00.961Z,8.10
2019-02-16T10:58:26.566Z,8.10
2019-02-16T11:00:55.434Z,8.30
2019-02-16T11:03:18.508Z,8.50
2019-02-16T11:05:41.597Z,8.70
2019-02-16T11:08:13.476Z,8.80
2019-02-16T11:10:39.405Z,8.80
2019-02-16T11:13:02.519Z,9.00
2019-02-16T11:15:31.617Z,9.00
2019-02-16T11:17:55.908Z,8.90
2019-02-16T11:20:22.738Z,9.00
2019-02-16T11:22:48.535Z,9.10
2019-02-16T11:25:29.815Z,9.30
2019-02-16T11:27:53.037Z,9.30
2019-02-16T11:30:16.124Z,9.30
2019-02-16T11:32:41.998Z,9.40
2019-02-16T11:35:15.236Z,9.40
2019-02-16T11:37:38.389Z,9.50
2019-02-16T11:40:07.732Z,9.50
2019-02-16T11:42:30.839Z,9.60
2019-02-16T11:44:56.690Z,9.70
2019-02-16T11:47:19.771Z,9.80
2019-02-16T11:49:59.269Z,9.90
2019-02-16T11:52:25.122Z,10.00
2019-02-16T11:54:54.142Z,10.20
2019-02-16T11:57:19.837Z,10.10
2019-02-16T11:59:45.685Z,10.20
2019-02-16T12:02:14.702Z,10.30
2019-02-16T12:04:37.781Z,10.40
2019-02-16T12:07:03.424Z,10.40
2019-02-16T12:09:32.656Z,10.80
2019-02-16T12:11:55.768Z,10.80
2019-02-16T12:14:18.843Z,11.00
2019-02-16T12:16:44.842Z,11.00
2019-02-16T12:19:07.937Z,11.00
2019-02-16T12:21:47.316Z,10.90
2019-02-16T12:24:10.457Z,11.00
2019-02-16T12:26:33.574Z,11.10
2019-02-16T12:29:02.385Z,11.20
2019-02-16T12:31:28.221Z,11.20
2019-02-16T12:34:03.058Z,11.30
2019-02-16T12:36:42.663Z,11.40
2019-02-16T12:39:09.701Z,11.40
2019-02-16T12:41:44.976Z,11.30
2019-02-16T12:44:10.604Z,11.30
2019-02-16T12:46:36.462Z,11.70
2019-02-16T12:49:16.273Z,11.70
2019-02-16T12:51:42.158Z,11.80
2019-02-16T12:54:05.250Z,11.90
2019-02-16T12:56:44.560Z,11.90
2019-02-16T12:59:19.665Z,11.80
2019-02-16T13:01:51.745Z,11.80
2019-02-16T13:04:31.517Z,11.80
2019-02-16T13:07:06.577Z,12.00
2019-02-16T13:09:32.324Z,11.90
2019-02-16T13:12:07.306Z,12.20
2019-02-16T13:14:48.858Z,12.10
2019-02-16T13:17:28.499Z,12.10
2019-02-16T13:20:03.549Z,12.10
2019-02-16T13:22:32.404Z,12.20
2019-02-16T13:24:55.524Z,12.20
2019-02-16T13:27:18.615Z,12.10
2019-02-16T13:29:47.251Z,12.10
2019-02-16T13:32:10.359Z,12.20
2019-02-16T13:34:45.284Z,12.40
2019-02-16T13:37:08.385Z,12.40
2019-02-16T13:39:43.300Z,12.40
2019-02-16T13:42:12.592Z,12.40
2019-02-16T13:44:44.240Z,12.50
2019-02-16T13:47:16.338Z,12.80
2019-02-16T13:49:39.501Z,12.80
2019-02-16T13:52:02.984Z,12.60
2019-02-16T13:54:26.711Z,12.60
2019-02-16T13:57:08.310Z,12.50
2019-02-16T13:59:37.707Z,12.60
2019-02-16T14:02:03.641Z,12.60
2019-02-16T14:04:29.343Z,12.70
2019-02-16T14:06:52.640Z,12.70
2019-02-16T14:09:21.498Z,12.70
2019-02-16T14:12:01.547Z,12.60
2019-02-16T14:14:42.800Z,12.60
2019-02-16T14:17:08.992Z,12.70
2019-02-16T14:19:30.565Z,12.80
2019-02-16T14:21:51.831Z,12.70
2019-02-16T14:24:13.247Z,12.70
2019-02-16T14:26:34.689Z,12.80
2019-02-16T14:28:55.891Z,12.80
2019-02-16T14:31:18.590Z,12.80
2019-02-16T14:33:39.881Z,12.80
2019-02-16T14:36:01.391Z,12.80
2019-02-16T14:38:24.573Z,12.80
2019-02-16T14:40:45.863Z,12.90
2019-02-16T14:43:07.240Z,12.80
2019-02-16T14:45:36.481Z,12.80
2019-02-16T14:47:57.805Z,12.80
2019-02-16T14:50:19.267Z,12.80
2019-02-16T14:52:40.651Z,12.90
2019-02-16T14:55:02.694Z,13.00
2019-02-16T14:57:24.150Z,12.90
2019-02-16T14:59:45.464Z,12.80
2019-02-16T15:02:06.683Z,12.80
2019-02-16T15:04:27.869Z,12.90
2019-02-16T15:06:49.368Z,12.90
2019-02-16T15:09:11.100Z,12.90
2019-02-16T15:11:34.783Z,12.90
2019-02-16T15:13:55.963Z,12.80
2019-02-16T15:16:17.169Z,12.80
2019-02-16T15:18:38.362Z,12.80
2019-02-16T15:20:59.697Z,12.80
2019-02-16T15:23:21.115Z,12.70
2019-02-16T15:25:42.540Z,12.70
2019-02-16T15:28:03.976Z,12.70
2019-02-16T15:30:25.935Z,12.70
2019-02-16T15:32:47.320Z,12.60
2019-02-16T15:35:09.909Z,12.60
2019-02-16T15:37:31.273Z,12.50
2019-02-16T15:39:52.461Z,12.50
2019-02-16T15:42:13.809Z,12.50
2019-02-16T15:44:35.072Z,12.40
2019-02-16T15:46:56.268Z,12.30
2019-02-16T15:49:17.455Z,12.30
2019-02-16T15:51:38.645Z,12.20
2019-02-16T15:53:59.822Z,12.10
2019-02-16T15:56:21.701Z,12.10
2019-02-16T15:58:43.426Z,12.00
2019-02-16T16:01:04.644Z,12.10
2019-02-16T16:03:25.961Z,12.00
2019-02-16T16:05:47.239Z,12.00
2019-02-16T16:08:22.145Z,11.90
2019-02-16T16:10:45.249Z,11.90
2019-02-16T16:13:14.072Z,11.80
2019-02-16T16:15:55.344Z,11.80
2019-02-16T16:18:27.205Z,11.60
2019-02-16T16:20:50.294Z,11.40
2019-02-16T16:23:18.973Z,11.40
2019-02-16T16:25:57.083Z,11.30
2019-02-16T16:28:31.794Z,11.20
2019-02-16T16:30:57.921Z,11.10
2019-02-16T16:33:26.798Z,11.10
2019-02-16T16:35:58.826Z,11.00
2019-02-16T16:38:22.122Z,10.90
2019-02-16T16:40:51.018Z,10.80
2019-02-16T16:43:22.971Z,10.70
2019-02-16T16:46:02.468Z,10.70
2019-02-16T16:48:42.147Z,10.50
2019-02-16T16:51:08.038Z,10.50
2019-02-16T16:53:38.792Z,10.40
2019-02-16T16:56:18.717Z,10.30
2019-02-16T16:58:41.824Z,10.30
2019-02-16T17:01:08.396Z,10.30
2019-02-16T17:03:48.081Z,10.40
2019-02-16T17:06:14.469Z,10.40
2019-02-16T17:08:37.573Z,10.40
2019-02-16T17:11:17.296Z,10.40
2019-02-16T17:13:43.148Z,10.30
2019-02-16T17:16:08.978Z,10.20
2019-02-16T17:18:35.076Z,10.10
2019-02-16T17:20:58.152Z,10.00
2019-02-16T17:23:21.244Z,9.90
2019-02-16T17:26:00.630Z,9.90
2019-02-16T17:28:26.610Z,9.70
2019-02-16T17:30:55.516Z,9.60
2019-02-16T17:33:21.391Z,9.70
2019-02-16T17:35:45.677Z,9.60
2019-02-16T17:38:11.668Z,9.50
2019-02-16T17:40:49.761Z,9.60
2019-02-16T17:43:12.899Z,9.50
2019-02-16T17:45:38.939Z,9.50
2019-02-16T17:48:19.779Z,9.50
2019-02-16T17:50:42.868Z,9.50
2019-02-16T17:53:11.817Z,9.70
2019-02-16T17:55:43.745Z,9.80
2019-02-16T17:58:23.554Z,9.80
2019-02-16T18:01:03.176Z,9.80
2019-02-16T18:03:42.636Z,9.70
2019-02-16T18:06:22.308Z,9.70
2019-02-16T18:08:51.363Z,9.70
2019-02-16T18:11:20.026Z,9.70
2019-02-16T18:13:45.805Z,9.60
2019-02-16T18:16:17.691Z,9.50
2019-02-16T18:18:40.941Z,9.50
2019-02-16T18:21:04.067Z,9.30
2019-02-16T18:23:30.033Z,9.30
2019-02-16T18:25:55.906Z,9.10
2019-02-16T18:28:22.229Z,9.00
2019-02-16T18:30:45.445Z,8.90
2019-02-16T18:33:20.556Z,8.80
2019-02-16T18:36:00.469Z,8.70
2019-02-16T18:38:23.681Z,8.60
2019-02-16T18:40:47.023Z,8.60
2019-02-16T18:43:16.388Z,8.50
2019-02-16T18:45:45.278Z,8.50
2019-02-16T18:48:20.245Z,8.40
2019-02-16T18:51:01.897Z,8.30
2019-02-16T18:53:30.526Z,8.20
2019-02-16T18:55:55.765Z,8.20
2019-02-16T18:58:24.921Z,8.10
2019-02-16T19:00:50.794Z,8.00
2019-02-16T19:03:16.827Z,7.90
2019-02-16T19:05:40.077Z,7.80
2019-02-16T19:08:15.277Z,7.70
2019-02-16T19:10:38.520Z,7.60
2019-02-16T19:13:01.775Z,7.50
2019-02-16T19:15:40.468Z,7.50
2019-02-16T19:18:06.361Z,7.50
2019-02-16T19:20:38.038Z,7.40
2019-02-16T19:23:17.484Z,7.40
2019-02-16T19:25:49.443Z,7.40
2019-02-16T19:28:28.998Z,7.30
2019-02-16T19:31:00.936Z,7.20
2019-02-16T19:33:40.745Z,7.10
2019-02-16T19:36:06.635Z,7.10
2019-02-16T19:38:32.592Z,7.20
2019-02-16T19:40:55.706Z,7.30
2019-02-16T19:43:28.229Z,7.30
2019-02-16T19:46:08.055Z,7.20
2019-02-16T19:48:43.176Z,7.20
2019-02-16T19:51:18.319Z,7.20
2019-02-16T19:53:41.491Z,7.10
2019-02-16T19:56:21.345Z,7.00
2019-02-16T19:58:44.432Z,7.00
2019-02-16T20:01:10.347Z,7.00
2019-02-16T20:03:36.188Z,6.90
2019-02-16T20:05:59.301Z,6.90
2019-02-16T20:08:28.185Z,6.80
2019-02-16T20:10:54.060Z,7.00
2019-02-16T20:13:19.764Z,7.00
2019-02-16T20:15:46.629Z,6.90
2019-02-16T20:18:15.692Z,6.80
2019-02-16T20:20:38.783Z,6.70
2019-02-16T20:23:13.977Z,6.60
2019-02-16T20:25:37.060Z,6.50
2019-02-16T20:28:02.922Z,6.40
2019-02-16T20:30:42.841Z,6.40
2019-02-16T20:33:20.937Z,6.30
2019-02-16T20:35:44.105Z,6.30
2019-02-16T20:38:07.229Z,6.00
2019-02-16T20:40:30.976Z,5.90
2019-02-16T20:43:12.405Z,5.80
2019-02-16T20:45:38.313Z,5.70
2019-02-16T20:48:07.176Z,5.50
2019-02-16T20:50:30.375Z,5.50
2019-02-16T20:52:53.474Z,5.50
2019-02-16T20:55:31.546Z,5.50
2019-02-16T20:58:06.388Z,5.40
2019-02-16T21:00:42.648Z,5.40
2019-02-16T21:03:17.469Z,5.30
2019-02-16T21:05:40.572Z,5.20
2019-02-16T21:08:06.289Z,5.10
2019-02-16T21:10:38.331Z,5.10
2019-02-16T21:13:04.204Z,5.00
2019-02-16T21:15:39.269Z,5.00
2019-02-16T21:18:18.875Z,5.00
2019-02-16T21:21:00.302Z,4.80
2019-02-16T21:23:31.943Z,4.70
2019-02-16T21:25:58.081Z,4.60
2019-02-16T21:28:21.437Z,4.70
2019-02-16T21:30:53.717Z,4.60
2019-02-16T21:33:25.593Z,4.60
2019-02-16T21:35:51.900Z,4.50
2019-02-16T21:38:28.264Z,4.50
2019-02-16T21:41:08.043Z,4.50
2019-02-16T21:43:40.431Z,4.50
2019-02-16T21:46:06.030Z,4.50
2019-02-16T21:48:35.005Z,4.50
2019-02-16T21:51:00.856Z,4.40
2019-02-16T21:53:38.748Z,4.30
2019-02-16T21:56:10.572Z,4.40
2019-02-16T21:58:33.674Z,4.60
2019-02-16T22:00:56.784Z,4.50
2019-02-16T22:03:38.479Z,4.40
2019-02-16T22:06:04.463Z,4.30
2019-02-16T22:08:33.381Z,4.40
2019-02-16T22:11:02.477Z,4.30
2019-02-16T22:13:23.686Z,4.20
2019-02-16T22:15:44.873Z,4.10
2019-02-16T22:18:06.072Z,4.00
2019-02-16T22:20:27.285Z,4.00
2019-02-16T22:22:48.480Z,4.00
2019-02-16T22:25:09.693Z,3.90
2019-02-16T22:27:30.863Z,3.80
2019-02-16T22:29:53.157Z,3.80
2019-02-16T22:32:14.353Z,3.80
2019-02-16T22:34:35.551Z,3.80
2019-02-16T22:36:56.719Z,3.90
2019-02-16T22:39:17.907Z,3.80
2019-02-16T22:41:39.101Z,3.70
2019-02-16T22:44:02.378Z,3.70
2019-02-16T22:46:23.388Z,3.70
2019-02-16T22:48:44.570Z,3.60
2019-02-16T22:51:05.766Z,3.60
2019-02-16T22:53:27.017Z,3.60
2019-02-16T22:55:48.232Z,3.60
2019-02-16T22:58:09.421Z,3.60
2019-02-16T23:00:43.424Z,3.70
2019-02-16T23:03:06.619Z,3.60
2019-02-16T23:05:29.108Z,3.50
2019-02-16T23:07:50.312Z,3.40
2019-02-16T23:10:12.037Z,3.40
2019-02-16T23:12:33.307Z,3.40
2019-02-16T23:15:14.487Z,3.50
2019-02-16T23:17:35.862Z,3.40
2019-02-16T23:19:57.039Z,3.40
2019-02-16T23:22:18.241Z,3.40
2019-02-16T23:24:39.417Z,3.30
2019-02-16T23:27:00.601Z,3.20
2019-02-16T23:29:21.778Z,3.20
2019-02-16T23:31:42.980Z,3.10
2019-02-16T23:34:04.156Z,3.00
2019-02-16T23:36:25.353Z,3.00
2019-02-16T23:38:46.529Z,2.90
2019-02-16T23:41:07.732Z,2.80
2019-02-16T23:43:28.917Z,2.80
2019-02-16T23:45:50.108Z,2.80
2019-02-16T23:48:11.287Z,2.70
2019-02-16T23:50:32.480Z,2.70
2019-02-16T23:52:53.659Z,2.60
2019-02-16T23:55:14.868Z,2.70
2019-02-16T23:57:36.040Z,2.60
2019-02-16T23:59:57.325Z,2.60
